Kostjvkovici, Belarus
Current Conditions -  °F | °C
As of 7:00 PM on Friday 24 Oct 2014 (Local Time) from UMGG Reporting Station
Clear Clear  
Wind Chill: 17°   Ceiling: Unl
Heat Index: 25°   Visibility: 6mi
Dew Point: 18°   Wind: 7mph
Humidity: 74%   Direction: 40°NE
Pressure: 30.59"   Gusts: NA
Location:  53.35°N, 32.07°E
Report Text: UMGG 241700Z 04003MPS CAVOK M04/M08 Q1036 R10/CLRD// NOSIG
Loading
Personal Weather Stations






























Interactive Weather Map
Tropical Storm Tracking
New forecast layout! Learn more

10-Day Weather Forecast

Advertisements
Track Severe Weather on mobile